createdAt,value
2019-05-10T05:45:06.945Z,13.90
2019-05-10T05:48:16.047Z,14.20
2019-05-10T05:50:44.763Z,14.50
2019-05-10T05:53:14.168Z,15.20
2019-05-10T05:55:44.086Z,15.80
2019-05-10T05:58:26.476Z,16.10
2019-05-10T06:00:50.868Z,16.50
2019-05-10T06:05:51.106Z,16.90
2019-05-10T06:08:23.686Z,17.10
2019-05-10T06:10:57.767Z,17.20
2019-05-10T06:13:23.327Z,17.50
2019-05-10T06:15:54.036Z,17.60
2019-05-10T06:18:26.760Z,17.80
2019-05-10T06:25:56.213Z,18.20
2019-05-10T06:28:28.945Z,18.40
2019-05-10T06:30:56.804Z,18.50
2019-05-10T06:33:26.401Z,18.50
2019-05-10T06:35:55.851Z,18.70
2019-05-10T06:40:55.632Z,18.90
2019-05-10T06:43:26.058Z,19.00
2019-05-10T06:48:28.611Z,19.10
2019-05-10T06:50:57.025Z,19.00
2019-05-10T06:55:55.422Z,18.90
2019-05-10T06:58:24.925Z,18.90
2019-05-10T07:00:54.429Z,18.90
2019-05-10T07:03:24.090Z,19.10
2019-05-10T07:08:22.738Z,19.10
2019-05-10T07:10:52.194Z,19.00
2019-05-10T07:13:21.705Z,19.10
2019-05-10T07:15:51.351Z,19.20
2019-05-10T07:20:51.588Z,19.20
2019-05-10T07:23:21.093Z,19.30
2019-05-10T07:25:50.575Z,19.50
2019-05-10T07:30:49.194Z,19.70
2019-05-10T07:33:18.702Z,19.90
2019-05-10T07:35:48.688Z,19.90
2019-05-10T07:38:23.450Z,20.00
2019-05-10T07:40:49.470Z,20.00
2019-05-10T07:43:26.392Z,20.00
2019-05-10T07:45:50.163Z,19.90
2019-05-10T07:48:23.051Z,19.80
2019-05-10T07:50:51.906Z,19.90
2019-05-10T07:53:22.740Z,20.10
2019-05-10T07:55:52.700Z,20.30
2019-05-10T07:58:22.140Z,20.40
2019-05-10T08:00:51.641Z,20.50
2019-05-10T08:03:23.642Z,20.30
2019-05-10T08:05:57.037Z,20.30
2019-05-10T08:08:23.538Z,20.30
2019-05-10T08:10:53.044Z,20.30
2019-05-10T08:13:25.077Z,20.30
2019-05-10T08:15:53.439Z,20.40
2019-05-10T08:18:25.290Z,20.50
2019-05-10T08:20:59.551Z,20.50
2019-05-10T08:23:27.801Z,20.50
2019-05-10T08:28:27.869Z,20.50
2019-05-10T08:30:58.797Z,20.50
2019-05-10T08:33:28.404Z,20.60
2019-05-10T08:36:00.639Z,20.50
2019-05-10T08:38:29.027Z,20.40
2019-05-10T08:40:58.564Z,20.40
2019-05-10T08:43:30.749Z,20.60
2019-05-10T08:45:59.304Z,20.90
2019-05-10T08:48:28.909Z,21.00
2019-05-10T08:51:05.620Z,21.10
2019-05-10T08:53:29.460Z,21.10
2019-05-10T08:55:59.149Z,21.10
2019-05-10T09:01:26.565Z,21.20
2019-05-10T09:03:55.276Z,21.40
2019-05-10T09:06:18.991Z,21.50
2019-05-10T09:11:19.952Z,22.00
2019-05-10T09:13:49.447Z,22.20
2019-05-10T09:16:18.959Z,22.40
2019-05-10T09:26:19.119Z,22.20
2019-05-10T09:28:53.454Z,22.40
2019-05-10T09:31:22.672Z,22.70
2019-05-10T09:33:54.024Z,22.70
2019-05-10T09:36:25.160Z,22.80
2019-05-10T09:38:53.239Z,22.80
2019-05-10T09:41:22.755Z,22.90
2019-05-10T09:43:53.755Z,23.10
2019-05-10T09:48:18.295Z,23.00
2019-05-10T09:50:47.852Z,23.10
2019-05-10T09:53:25.390Z,22.90
2019-05-10T09:55:55.234Z,23.10
2019-05-10T09:58:22.314Z,23.20
2019-05-10T10:00:51.695Z,23.40
2019-05-10T10:03:22.120Z,23.60
2019-05-10T10:08:22.431Z,24.10
2019-05-10T10:10:51.968Z,24.20
2019-05-10T10:13:38.606Z,24.40
2019-05-10T10:15:52.725Z,24.40
2019-05-10T10:18:25.383Z,24.30
2019-05-10T10:20:53.360Z,24.30
2019-05-10T10:23:24.785Z,24.30
2019-05-10T10:25:54.108Z,24.30
2019-05-10T10:28:23.613Z,24.20
2019-05-10T10:31:02.420Z,24.20
2019-05-10T10:33:28.062Z,23.70
2019-05-10T10:35:56.422Z,23.60
2019-05-10T10:38:30.620Z,23.40
2019-05-10T10:40:57.730Z,23.40
2019-05-10T10:43:29.955Z,23.40
2019-05-10T10:45:59.459Z,23.30
2019-05-10T10:48:28.862Z,23.20
2019-05-10T10:50:58.824Z,23.00
2019-05-10T10:53:29.693Z,22.70
2019-05-10T10:56:03.572Z,22.10
2019-05-10T10:58:30.308Z,21.90
2019-05-10T11:06:01.022Z,21.80
2019-05-10T11:08:32.893Z,22.30
2019-05-10T11:11:01.566Z,22.60
2019-05-10T11:16:09.858Z,22.50
2019-05-10T11:18:34.239Z,22.90
2019-05-10T11:21:03.678Z,23.10
2019-05-10T11:24:22.886Z,23.50
2019-05-10T11:26:52.351Z,23.70
2019-05-10T11:29:26.254Z,23.70
2019-05-10T11:32:11.307Z,23.70
2019-05-10T11:34:29.397Z,24.00
2019-05-10T11:36:56.310Z,24.50
2019-05-10T11:39:26.894Z,24.50
2019-05-10T11:42:02.184Z,24.70
2019-05-10T11:44:27.485Z,24.80
2019-05-10T11:46:57.089Z,25.00
2019-05-10T11:49:26.642Z,24.70
2019-05-10T11:51:58.639Z,24.60
2019-05-10T11:54:27.145Z,24.60
2019-05-10T11:56:58.461Z,24.60
2019-05-10T11:59:33.883Z,25.00
2019-05-10T12:02:00.550Z,25.40
2019-05-10T12:04:38.654Z,25.40
2019-05-10T12:07:02.709Z,25.60
2019-05-10T12:09:32.046Z,25.30
2019-05-10T12:12:03.397Z,25.20
2019-05-10T12:14:32.593Z,25.10
2019-05-10T12:17:06.132Z,25.60
2019-05-10T12:19:44.474Z,25.70
2019-05-10T12:22:04.921Z,28.10
2019-05-10T12:26:33.848Z,30.10
2019-05-10T12:27:17.321Z,29.20
2019-05-10T12:29:36.679Z,30.50
2019-05-10T12:32:06.591Z,32.50
2019-05-10T12:34:35.995Z,32.90
2019-05-10T12:37:08.276Z,35.80
2019-05-10T12:39:36.538Z,34.30
2019-05-10T12:42:06.159Z,35.40
2019-05-10T12:44:38.874Z,36.40
2019-05-10T12:47:06.696Z,37.50
2019-05-10T12:49:36.601Z,39.40
2019-05-10T12:52:09.079Z,41.00
